sensor_id;sensor_type;location;lat;lon;timestamp;pressure;altitude;pressure_sealevel;temperature
53667;BMP280;39568;51.026;5.468;2022-10-14T00:02:08;100724.75;;;13.15
53667;BMP280;39568;51.026;5.468;2022-10-14T00:04:36;100729.13;;;13.18
53667;BMP280;39568;51.026;5.468;2022-10-14T00:07:03;100729.91;;;13.08
53667;BMP280;39568;51.026;5.468;2022-10-14T00:09:29;100728.94;;;13.11
53667;BMP280;39568;51.026;5.468;2022-10-14T00:11:56;100729.00;;;13.05
53667;BMP280;39568;51.026;5.468;2022-10-14T00:14:23;100724.88;;;13.04
53667;BMP280;39568;51.026;5.468;2022-10-14T00:16:52;100728.50;;;13.07
53667;BMP280;39568;51.026;5.468;2022-10-14T00:19:19;100725.09;;;13.06
53667;BMP280;39568;51.026;5.468;2022-10-14T00:21:51;100710.16;;;13.16
53667;BMP280;39568;51.026;5.468;2022-10-14T00:24:24;100716.03;;;13.15
53667;BMP280;39568;51.026;5.468;2022-10-14T00:26:50;100715.34;;;13.09
53667;BMP280;39568;51.026;5.468;2022-10-14T00:29:19;100711.19;;;13.13
53667;BMP280;39568;51.026;5.468;2022-10-14T00:31:48;100711.16;;;13.19
53667;BMP280;39568;51.026;5.468;2022-10-14T00:34:16;100708.53;;;13.13
53667;BMP280;39568;51.026;5.468;2022-10-14T00:36:43;100702.16;;;13.16
53667;BMP280;39568;51.026;5.468;2022-10-14T00:39:11;100696.59;;;13.14
53667;BMP280;39568;51.026;5.468;2022-10-14T00:41:38;100695.59;;;13.17
53667;BMP280;39568;51.026;5.468;2022-10-14T00:44:07;100698.91;;;13.23
53667;BMP280;39568;51.026;5.468;2022-10-14T00:46:55;100694.81;;;13.22
53667;BMP280;39568;51.026;5.468;2022-10-14T00:49:25;100702.41;;;13.18
53667;BMP280;39568;51.026;5.468;2022-10-14T00:51:55;100697.06;;;13.18
53667;BMP280;39568;51.026;5.468;2022-10-14T00:54:28;100700.38;;;13.24
53667;BMP280;39568;51.026;5.468;2022-10-14T00:56:55;100698.44;;;13.25
53667;BMP280;39568;51.026;5.468;2022-10-14T00:59:23;100696.25;;;13.23
53667;BMP280;39568;51.026;5.468;2022-10-14T01:01:50;100691.19;;;13.20
53667;BMP280;39568;51.026;5.468;2022-10-14T01:04:20;100693.56;;;13.23
53667;BMP280;39568;51.026;5.468;2022-10-14T01:07:01;100697.41;;;13.28
53667;BMP280;39568;51.026;5.468;2022-10-14T01:09:35;100692.75;;;13.34
53667;BMP280;39568;51.026;5.468;2022-10-14T01:12:09;100697.41;;;13.28
53667;BMP280;39568;51.026;5.468;2022-10-14T01:14:47;100686.81;;;13.22
53667;BMP280;39568;51.026;5.468;2022-10-14T01:17:25;100691.34;;;13.27
53667;BMP280;39568;51.026;5.468;2022-10-14T01:20:15;100672.63;;;13.27
53667;BMP280;39568;51.026;5.468;2022-10-14T01:22:57;100673.66;;;13.24
53667;BMP280;39568;51.026;5.468;2022-10-14T01:25:34;100673.91;;;13.26
53667;BMP280;39568;51.026;5.468;2022-10-14T01:28:16;100665.44;;;13.22
53667;BMP280;39568;51.026;5.468;2022-10-14T01:30:48;100659.50;;;13.29
53667;BMP280;39568;51.026;5.468;2022-10-14T01:33:19;100657.47;;;13.35
53667;BMP280;39568;51.026;5.468;2022-10-14T01:35:54;100661.66;;;13.31
53667;BMP280;39568;51.026;5.468;2022-10-14T01:38:28;100654.81;;;13.35
53667;BMP280;39568;51.026;5.468;2022-10-14T01:40:56;100642.19;;;13.36
53667;BMP280;39568;51.026;5.468;2022-10-14T01:43:26;100636.09;;;13.35
53667;BMP280;39568;51.026;5.468;2022-10-14T01:45:55;100640.38;;;13.44
53667;BMP280;39568;51.026;5.468;2022-10-14T01:48:27;100639.44;;;13.42
53667;BMP280;39568;51.026;5.468;2022-10-14T01:50:57;100629.91;;;13.46
53667;BMP280;39568;51.026;5.468;2022-10-14T01:53:28;100638.19;;;13.43
53667;BMP280;39568;51.026;5.468;2022-10-14T01:55:57;100632.66;;;13.40
53667;BMP280;39568;51.026;5.468;2022-10-14T01:58:26;100634.59;;;13.40
53667;BMP280;39568;51.026;5.468;2022-10-14T02:01:01;100637.72;;;13.44
53667;BMP280;39568;51.026;5.468;2022-10-14T02:03:37;100637.72;;;13.44
53667;BMP280;39568;51.026;5.468;2022-10-14T02:06:06;100632.84;;;13.43
53667;BMP280;39568;51.026;5.468;2022-10-14T02:08:42;100629.47;;;13.42
53667;BMP280;39568;51.026;5.468;2022-10-14T02:11:15;100635.53;;;13.43
53667;BMP280;39568;51.026;5.468;2022-10-14T02:13:54;100622.53;;;13.33
53667;BMP280;39568;51.026;5.468;2022-10-14T02:16:32;100621.53;;;13.36
53667;BMP280;39568;51.026;5.468;2022-10-14T02:19:08;100625.88;;;13.39
53667;BMP280;39568;51.026;5.468;2022-10-14T02:21:40;100619.09;;;13.38
53667;BMP280;39568;51.026;5.468;2022-10-14T02:24:11;100618.56;;;13.40
53667;BMP280;39568;51.026;5.468;2022-10-14T02:26:39;100610.09;;;13.36
53667;BMP280;39568;51.026;5.468;2022-10-14T02:29:07;100616.31;;;13.44
53667;BMP280;39568;51.026;5.468;2022-10-14T02:31:37;100624.03;;;13.48
53667;BMP280;39568;51.026;5.468;2022-10-14T02:34:09;100613.19;;;13.40
53667;BMP280;39568;51.026;5.468;2022-10-14T02:36:37;100612.44;;;13.45
53667;BMP280;39568;51.026;5.468;2022-10-14T02:39:08;100610.25;;;13.44
53667;BMP280;39568;51.026;5.468;2022-10-14T02:41:37;100613.94;;;13.40
53667;BMP280;39568;51.026;5.468;2022-10-14T02:44:04;100613.16;;;13.46
53667;BMP280;39568;51.026;5.468;2022-10-14T02:46:31;100609.53;;;13.43
53667;BMP280;39568;51.026;5.468;2022-10-14T02:49:03;100594.16;;;13.49
53667;BMP280;39568;51.026;5.468;2022-10-14T02:51:30;100590.50;;;13.47
53667;BMP280;39568;51.026;5.468;2022-10-14T02:54:03;100593.63;;;13.51
53667;BMP280;39568;51.026;5.468;2022-10-14T02:56:31;100598.78;;;13.49
53667;BMP280;39568;51.026;5.468;2022-10-14T02:58:58;100587.13;;;13.46
53667;BMP280;39568;51.026;5.468;2022-10-14T03:01:25;100595.31;;;13.54
53667;BMP280;39568;51.026;5.468;2022-10-14T03:03:52;100584.91;;;13.50
53667;BMP280;39568;51.026;5.468;2022-10-14T03:06:22;100585.34;;;13.54
53667;BMP280;39568;51.026;5.468;2022-10-14T03:08:50;100588.28;;;13.51
53667;BMP280;39568;51.026;5.468;2022-10-14T03:11:17;100577.13;;;13.52
53667;BMP280;39568;51.026;5.468;2022-10-14T03:13:44;100567.19;;;13.47
53667;BMP280;39568;51.026;5.468;2022-10-14T03:16:11;100561.78;;;13.53
53667;BMP280;39568;51.026;5.468;2022-10-14T03:18:37;100573.78;;;13.46
53667;BMP280;39568;51.026;5.468;2022-10-14T03:21:12;100562.38;;;13.46
53667;BMP280;39568;51.026;5.468;2022-10-14T03:23:41;100560.41;;;13.46
53667;BMP280;39568;51.026;5.468;2022-10-14T03:26:08;100561.13;;;13.47
53667;BMP280;39568;51.026;5.468;2022-10-14T03:28:34;100562.28;;;13.51
53667;BMP280;39568;51.026;5.468;2022-10-14T03:31:02;100552.59;;;13.48
53667;BMP280;39568;51.026;5.468;2022-10-14T03:33:29;100552.75;;;13.56
53667;BMP280;39568;51.026;5.468;2022-10-14T03:35:55;100554.19;;;13.57
53667;BMP280;39568;51.026;5.468;2022-10-14T03:38:22;100538.88;;;13.57
53667;BMP280;39568;51.026;5.468;2022-10-14T03:40:50;100543.78;;;13.53
53667;BMP280;39568;51.026;5.468;2022-10-14T03:43:18;100528.19;;;13.57
53667;BMP280;39568;51.026;5.468;2022-10-14T03:45:45;100533.22;;;13.61
53667;BMP280;39568;51.026;5.468;2022-10-14T03:48:12;100533.66;;;13.65
53667;BMP280;39568;51.026;5.468;2022-10-14T03:50:38;100526.78;;;13.69
53667;BMP280;39568;51.026;5.468;2022-10-14T03:53:07;100527.47;;;13.57
53667;BMP280;39568;51.026;5.468;2022-10-14T03:55:36;100532.38;;;13.53
53667;BMP280;39568;51.026;5.468;2022-10-14T03:58:04;100527.47;;;13.57
53667;BMP280;39568;51.026;5.468;2022-10-14T04:00:33;100528.78;;;13.50
53667;BMP280;39568;51.026;5.468;2022-10-14T04:03:01;100530.22;;;13.51
53667;BMP280;39568;51.026;5.468;2022-10-14T04:05:27;100530.94;;;13.52
53667;BMP280;39568;51.026;5.468;2022-10-14T04:08:00;100527.09;;;13.47
53667;BMP280;39568;51.026;5.468;2022-10-14T04:10:27;100526.38;;;13.47
53667;BMP280;39568;51.026;5.468;2022-10-14T04:12:56;100534.34;;;13.52
53667;BMP280;39568;51.026;5.468;2022-10-14T04:15:24;100526.94;;;13.58
53667;BMP280;39568;51.026;5.468;2022-10-14T04:17:50;100529.91;;;13.55
53667;BMP280;39568;51.026;5.468;2022-10-14T04:20:17;100519.88;;;13.61
53667;BMP280;39568;51.026;5.468;2022-10-14T04:22:44;100527.34;;;13.49
53667;BMP280;39568;51.026;5.468;2022-10-14T04:25:11;100523.56;;;13.58
53667;BMP280;39568;51.026;5.468;2022-10-14T04:27:38;100525.28;;;13.55
53667;BMP280;39568;51.026;5.468;2022-10-14T04:30:05;100529.78;;;13.47
53667;BMP280;39568;51.026;5.468;2022-10-14T04:32:33;100512.44;;;13.54
53667;BMP280;39568;51.026;5.468;2022-10-14T04:35:00;100518.09;;;13.50
53667;BMP280;39568;51.026;5.468;2022-10-14T04:37:27;100517.41;;;13.63
53667;BMP280;39568;51.026;5.468;2022-10-14T04:39:55;100512.88;;;13.58
53667;BMP280;39568;51.026;5.468;2022-10-14T04:42:29;100514.09;;;13.57
53667;BMP280;39568;51.026;5.468;2022-10-14T04:44:59;100513.88;;;13.55
53667;BMP280;39568;51.026;5.468;2022-10-14T04:47:27;100516.34;;;13.53
53667;BMP280;39568;51.026;5.468;2022-10-14T04:49:55;100520.66;;;13.56
53667;BMP280;39568;51.026;5.468;2022-10-14T04:52:22;100514.72;;;13.63
53667;BMP280;39568;51.026;5.468;2022-10-14T04:54:49;100515.84;;;13.54
53667;BMP280;39568;51.026;5.468;2022-10-14T04:57:15;100499.19;;;13.61
53667;BMP280;39568;51.026;5.468;2022-10-14T04:59:42;100496.59;;;13.56
53667;BMP280;39568;51.026;5.468;2022-10-14T05:02:09;100498.78;;;13.57
53667;BMP280;39568;51.026;5.468;2022-10-14T05:04:35;100499.81;;;13.54
53667;BMP280;39568;51.026;5.468;2022-10-14T05:07:03;100502.59;;;13.62
53667;BMP280;39568;51.026;5.468;2022-10-14T05:09:30;100503.81;;;13.61
53667;BMP280;39568;51.026;5.468;2022-10-14T05:11:57;100497.25;;;13.62
53667;BMP280;39568;51.026;5.468;2022-10-14T05:14:24;100493.72;;;13.54
53667;BMP280;39568;51.026;5.468;2022-10-14T05:16:50;100484.69;;;13.57
53667;BMP280;39568;51.026;5.468;2022-10-14T05:19:17;100489.41;;;13.51
53667;BMP280;39568;51.026;5.468;2022-10-14T05:21:44;100485.78;;;13.48
53667;BMP280;39568;51.026;5.468;2022-10-14T05:24:12;100484.16;;;13.45
53667;BMP280;39568;51.026;5.468;2022-10-14T05:26:39;100481.97;;;13.44
53667;BMP280;39568;51.026;5.468;2022-10-14T05:29:05;100479.81;;;13.42
53667;BMP280;39568;51.026;5.468;2022-10-14T05:31:32;100477.03;;;13.48
53667;BMP280;39568;51.026;5.468;2022-10-14T05:33:59;100475.53;;;13.52
53667;BMP280;39568;51.026;5.468;2022-10-14T05:36:30;100474.91;;;13.59
53667;BMP280;39568;51.026;5.468;2022-10-14T05:38:56;100476.22;;;13.53
53667;BMP280;39568;51.026;5.468;2022-10-14T05:41:25;100461.97;;;13.50
53667;BMP280;39568;51.026;5.468;2022-10-14T05:43:57;100461.84;;;13.56
53667;BMP280;39568;51.026;5.468;2022-10-14T05:46:25;100461.84;;;13.56
53667;BMP280;39568;51.026;5.468;2022-10-14T05:48:57;100453.84;;;13.56
53667;BMP280;39568;51.026;5.468;2022-10-14T05:51:24;100446.84;;;13.53
53667;BMP280;39568;51.026;5.468;2022-10-14T05:53:51;100443.56;;;13.60
53667;BMP280;39568;51.026;5.468;2022-10-14T05:56:18;100445.00;;;13.61
53667;BMP280;39568;51.026;5.468;2022-10-14T05:58:46;100441.81;;;13.62
53667;BMP280;39568;51.026;5.468;2022-10-14T06:01:12;100442.94;;;13.54
53667;BMP280;39568;51.026;5.468;2022-10-14T06:03:39;100447.44;;;13.59
53667;BMP280;39568;51.026;5.468;2022-10-14T06:06:10;100441.31;;;13.64
53667;BMP280;39568;51.026;5.468;2022-10-14T06:08:38;100441.72;;;13.68
53667;BMP280;39568;51.026;5.468;2022-10-14T06:11:05;100442.66;;;13.70
53667;BMP280;39568;51.026;5.468;2022-10-14T06:13:35;100439.28;;;13.70
53667;BMP280;39568;51.026;5.468;2022-10-14T06:16:05;100440.41;;;13.74
53667;BMP280;39568;51.026;5.468;2022-10-14T06:18:32;100444.19;;;13.79
53667;BMP280;39568;51.026;5.468;2022-10-14T06:20:59;100452.53;;;13.75
53667;BMP280;39568;51.026;5.468;2022-10-14T06:23:26;100447.50;;;13.72
53667;BMP280;39568;51.026;5.468;2022-10-14T06:25:54;100442.50;;;13.81
53667;BMP280;39568;51.026;5.468;2022-10-14T06:28:23;100432.41;;;13.87
53667;BMP280;39568;51.026;5.468;2022-10-14T06:30:51;100430.94;;;13.86
53667;BMP280;39568;51.026;5.468;2022-10-14T06:33:22;100424.47;;;13.82
53667;BMP280;39568;51.026;5.468;2022-10-14T06:35:52;100417.56;;;13.86
53667;BMP280;39568;51.026;5.468;2022-10-14T06:38:18;100412.56;;;13.83
53667;BMP280;39568;51.026;5.468;2022-10-14T06:40:45;100420.38;;;13.94
53667;BMP280;39568;51.026;5.468;2022-10-14T06:43:11;100420.97;;;13.87
53667;BMP280;39568;51.026;5.468;2022-10-14T06:45:38;100409.66;;;13.94
53667;BMP280;39568;51.026;5.468;2022-10-14T06:48:05;100405.75;;;13.95
53667;BMP280;39568;51.026;5.468;2022-10-14T06:50:37;100407.00;;;13.81
53667;BMP280;39568;51.026;5.468;2022-10-14T06:53:09;100404.53;;;13.83
53667;BMP280;39568;51.026;5.468;2022-10-14T06:55:36;100404.53;;;13.83
53667;BMP280;39568;51.026;5.468;2022-10-14T06:58:02;100401.66;;;13.81
53667;BMP280;39568;51.026;5.468;2022-10-14T07:00:29;100407.19;;;13.96
53667;BMP280;39568;51.026;5.468;2022-10-14T07:02:57;100407.19;;;13.96
53667;BMP280;39568;51.026;5.468;2022-10-14T07:05:24;100401.94;;;13.90
53667;BMP280;39568;51.026;5.468;2022-10-14T07:07:54;100406.56;;;13.90
53667;BMP280;39568;51.026;5.468;2022-10-14T07:10:22;100403.41;;;14.04
53667;BMP280;39568;51.026;5.468;2022-10-14T07:12:53;100404.72;;;13.98
53667;BMP280;39568;51.026;5.468;2022-10-14T07:15:23;100400.91;;;13.93
53667;BMP280;39568;51.026;5.468;2022-10-14T07:17:50;100403.88;;;13.90
53667;BMP280;39568;51.026;5.468;2022-10-14T07:20:16;100401.03;;;14.01
53667;BMP280;39568;51.026;5.468;2022-10-14T07:22:43;100404.94;;;14.00
53667;BMP280;39568;51.026;5.468;2022-10-14T07:25:11;100397.22;;;13.96
53667;BMP280;39568;51.026;5.468;2022-10-14T07:27:39;100401.13;;;14.08
53667;BMP280;39568;51.026;5.468;2022-10-14T07:30:09;100408.63;;;14.10
53667;BMP280;39568;51.026;5.468;2022-10-14T07:32:36;100402.03;;;14.11
53667;BMP280;39568;51.026;5.468;2022-10-14T07:35:03;100410.78;;;14.12
53667;BMP280;39568;51.026;5.468;2022-10-14T07:37:30;100414.19;;;14.12
53667;BMP280;39568;51.026;5.468;2022-10-14T07:39:57;100408.19;;;14.32
53667;BMP280;39568;51.026;5.468;2022-10-14T07:42:26;100407.34;;;14.37
53667;BMP280;39568;51.026;5.468;2022-10-14T07:44:53;100413.63;;;14.27
53667;BMP280;39568;51.026;5.468;2022-10-14T07:47:21;100411.19;;;14.16
53667;BMP280;39568;51.026;5.468;2022-10-14T07:49:49;100411.69;;;14.14
53667;BMP280;39568;51.026;5.468;2022-10-14T07:52:16;100409.75;;;14.28
53667;BMP280;39568;51.026;5.468;2022-10-14T07:54:44;100407.16;;;14.35
53667;BMP280;39568;51.026;5.468;2022-10-14T07:57:11;100408.16;;;14.45
53667;BMP280;39568;51.026;5.468;2022-10-14T07:59:47;100401.81;;;14.22
53667;BMP280;39568;51.026;5.468;2022-10-14T08:02:20;100409.94;;;14.43
53667;BMP280;39568;51.026;5.468;2022-10-14T08:04:51;100409.31;;;14.37
53667;BMP280;39568;51.026;5.468;2022-10-14T08:07:17;100417.88;;;14.35
53667;BMP280;39568;51.026;5.468;2022-10-14T08:09:44;100399.97;;;14.30
53667;BMP280;39568;51.026;5.468;2022-10-14T08:12:11;100399.84;;;14.36
53667;BMP280;39568;51.026;5.468;2022-10-14T08:14:40;100400.75;;;14.51
53667;BMP280;39568;51.026;5.468;2022-10-14T08:17:06;100393.72;;;14.48
53667;BMP280;39568;51.026;5.468;2022-10-14T08:19:33;100396.31;;;14.41
53667;BMP280;39568;51.026;5.468;2022-10-14T08:22:00;100402.41;;;14.41
53667;BMP280;39568;51.026;5.468;2022-10-14T08:24:29;100402.00;;;14.37
53667;BMP280;39568;51.026;5.468;2022-10-14T08:26:57;100395.84;;;14.29
53667;BMP280;39568;51.026;5.468;2022-10-14T08:29:25;100399.00;;;14.41
53667;BMP280;39568;51.026;5.468;2022-10-14T08:31:53;100392.31;;;14.47
53667;BMP280;39568;51.026;5.468;2022-10-14T08:34:20;100394.25;;;14.47
53667;BMP280;39568;51.026;5.468;2022-10-14T08:36:51;100391.44;;;14.52
53667;BMP280;39568;51.026;5.468;2022-10-14T08:39:32;100378.53;;;14.43
53667;BMP280;39568;51.026;5.468;2022-10-14T08:42:16;100385.75;;;14.35
53667;BMP280;39568;51.026;5.468;2022-10-14T08:44:48;100376.66;;;14.38
53667;BMP280;39568;51.026;5.468;2022-10-14T08:47:24;100384.69;;;14.38
53667;BMP280;39568;51.026;5.468;2022-10-14T08:49:58;100373.81;;;14.36
53667;BMP280;39568;51.026;5.468;2022-10-14T08:52:33;100375.72;;;14.49
53667;BMP280;39568;51.026;5.468;2022-10-14T08:55:03;100373.88;;;14.44
53667;BMP280;39568;51.026;5.468;2022-10-14T08:57:45;100370.69;;;14.45
53667;BMP280;39568;51.026;5.468;2022-10-14T09:00:18;100373.56;;;14.47
53667;BMP280;39568;51.026;5.468;2022-10-14T09:02:48;100370.03;;;14.52
53667;BMP280;39568;51.026;5.468;2022-10-14T09:05:17;100375.72;;;14.49
53667;BMP280;39568;51.026;5.468;2022-10-14T09:07:46;100369.66;;;14.69
53667;BMP280;39568;51.026;5.468;2022-10-14T09:10:25;100369.41;;;14.59
53667;BMP280;39568;51.026;5.468;2022-10-14T09:12:55;100367.56;;;14.54
53667;BMP280;39568;51.026;5.468;2022-10-14T09:15:26;100368.78;;;14.66
53667;BMP280;39568;51.026;5.468;2022-10-14T09:18:03;100364.19;;;14.74
53667;BMP280;39568;51.026;5.468;2022-10-14T09:20:31;100362.91;;;14.89
53667;BMP280;39568;51.026;5.468;2022-10-14T09:23:09;100369.03;;;14.97
53667;BMP280;39568;51.026;5.468;2022-10-14T09:25:42;100357.06;;;14.98
53667;BMP280;39568;51.026;5.468;2022-10-14T09:28:10;100356.88;;;14.96
53667;BMP280;39568;51.026;5.468;2022-10-14T09:30:37;100363.38;;;15.08
53667;BMP280;39568;51.026;5.468;2022-10-14T09:33:12;100365.94;;;15.13
53667;BMP280;39568;51.026;5.468;2022-10-14T09:35:44;100365.50;;;15.02
53667;BMP280;39568;51.026;5.468;2022-10-14T09:38:11;100353.47;;;15.16
53667;BMP280;39568;51.026;5.468;2022-10-14T09:40:42;100361.28;;;15.06
53667;BMP280;39568;51.026;5.468;2022-10-14T09:43:15;100357.19;;;14.92
53667;BMP280;39568;51.026;5.468;2022-10-14T09:45:49;100363.28;;;14.93
53667;BMP280;39568;51.026;5.468;2022-10-14T09:48:20;100354.84;;;14.89
53667;BMP280;39568;51.026;5.468;2022-10-14T09:50:49;100343.09;;;14.92
53667;BMP280;39568;51.026;5.468;2022-10-14T09:53:26;100343.38;;;15.01
53667;BMP280;39568;51.026;5.468;2022-10-14T09:55:54;100339.38;;;14.95
53667;BMP280;39568;51.026;5.468;2022-10-14T09:58:28;100343.84;;;15.20
53667;BMP280;39568;51.026;5.468;2022-10-14T10:00:57;100344.66;;;15.36
53667;BMP280;39568;51.026;5.468;2022-10-14T10:03:27;100346.91;;;15.53
53667;BMP280;39568;51.026;5.468;2022-10-14T10:06:03;100343.03;;;15.61
53667;BMP280;39568;51.026;5.468;2022-10-14T10:08:32;100338.31;;;15.90
53667;BMP280;39568;51.026;5.468;2022-10-14T10:11:02;100338.56;;;16.07
53667;BMP280;39568;51.026;5.468;2022-10-14T10:13:35;100343.72;;;15.97
53667;BMP280;39568;51.026;5.468;2022-10-14T10:16:17;100332.91;;;16.48
53667;BMP280;39568;51.026;5.468;2022-10-14T10:18:46;100335.06;;;16.80
53667;BMP280;39568;51.026;5.468;2022-10-14T10:21:17;100323.22;;;16.90
53667;BMP280;39568;51.026;5.468;2022-10-14T10:23:50;100323.38;;;16.25
53667;BMP280;39568;51.026;5.468;2022-10-14T10:26:19;100319.63;;;16.20
53667;BMP280;39568;51.026;5.468;2022-10-14T10:28:50;100312.66;;;16.25
53667;BMP280;39568;51.026;5.468;2022-10-14T10:31:26;100320.69;;;16.09
53667;BMP280;39568;51.026;5.468;2022-10-14T10:34:08;100309.03;;;15.99
53667;BMP280;39568;51.026;5.468;2022-10-14T10:36:43;100309.91;;;15.94
53667;BMP280;39568;51.026;5.468;2022-10-14T10:39:21;100310.59;;;15.87
53667;BMP280;39568;51.026;5.468;2022-10-14T10:41:58;100316.91;;;15.62
53667;BMP280;39568;51.026;5.468;2022-10-14T10:44:47;100314.00;;;15.52
53667;BMP280;39568;51.026;5.468;2022-10-14T10:47:30;100307.22;;;15.51
53667;BMP280;39568;51.026;5.468;2022-10-14T10:53:19;100312.97;;;15.55
53667;BMP280;39568;51.026;5.468;2022-10-14T10:56:03;100327.59;;;15.54
53667;BMP280;39568;51.026;5.468;2022-10-14T10:58:41;100318.75;;;15.38
53667;BMP280;39568;51.026;5.468;2022-10-14T11:01:28;100318.41;;;15.42
53667;BMP280;39568;51.026;5.468;2022-10-14T11:04:11;100322.59;;;15.51
53667;BMP280;39568;51.026;5.468;2022-10-14T11:06:47;100312.91;;;15.47
53667;BMP280;39568;51.026;5.468;2022-10-14T11:09:40;100313.94;;;15.37
53667;BMP280;39568;51.026;5.468;2022-10-14T11:12:31;100304.72;;;15.45
53667;BMP280;39568;51.026;5.468;2022-10-14T11:15:19;100300.75;;;15.46
53667;BMP280;39568;51.026;5.468;2022-10-14T11:17:53;100308.63;;;15.44
53667;BMP280;39568;51.026;5.468;2022-10-14T11:20:29;100307.56;;;15.47
53667;BMP280;39568;51.026;5.468;2022-10-14T11:23:18;100301.50;;;15.55
53667;BMP280;39568;51.026;5.468;2022-10-14T11:25:53;100301.00;;;15.56
53667;BMP280;39568;51.026;5.468;2022-10-14T11:28:25;100303.69;;;15.56
53667;BMP280;39568;51.026;5.468;2022-10-14T11:31:02;100294.19;;;15.55
53667;BMP280;39568;51.026;5.468;2022-10-14T11:33:43;100289.34;;;15.54
53667;BMP280;39568;51.026;5.468;2022-10-14T11:36:22;100286.03;;;15.68
53667;BMP280;39568;51.026;5.468;2022-10-14T11:39:18;100280.69;;;15.76
53667;BMP280;39568;51.026;5.468;2022-10-14T11:41:59;100277.16;;;15.88
53667;BMP280;39568;51.026;5.468;2022-10-14T11:44:33;100271.94;;;15.90
53667;BMP280;39568;51.026;5.468;2022-10-14T11:47:07;100268.22;;;15.93
53667;BMP280;39568;51.026;5.468;2022-10-14T11:49:42;100261.09;;;16.18
53667;BMP280;39568;51.026;5.468;2022-10-14T11:52:16;100263.97;;;16.05
53667;BMP280;39568;51.026;5.468;2022-10-14T11:54:49;100251.06;;;16.11
53667;BMP280;39568;51.026;5.468;2022-10-14T11:57:25;100259.28;;;15.98
53667;BMP280;39568;51.026;5.468;2022-10-14T11:59:57;100263.75;;;15.88
53667;BMP280;39568;51.026;5.468;2022-10-14T12:02:36;100257.22;;;15.61
53667;BMP280;39568;51.026;5.468;2022-10-14T12:05:14;100254.91;;;15.65
53667;BMP280;39568;51.026;5.468;2022-10-14T12:07:48;100247.41;;;15.71
53667;BMP280;39568;51.026;5.468;2022-10-14T12:10:22;100254.38;;;15.74
53667;BMP280;39568;51.026;5.468;2022-10-14T12:12:55;100245.44;;;15.72
53667;BMP280;39568;51.026;5.468;2022-10-14T12:15:35;100261.38;;;15.77
53667;BMP280;39568;51.026;5.468;2022-10-14T12:18:04;100251.41;;;15.93
53667;BMP280;39568;51.026;5.468;2022-10-14T12:20:36;100252.44;;;15.90
53667;BMP280;39568;51.026;5.468;2022-10-14T12:23:07;100230.84;;;15.88
53667;BMP280;39568;51.026;5.468;2022-10-14T12:25:44;100221.19;;;16.07
53667;BMP280;39568;51.026;5.468;2022-10-14T12:28:16;100216.34;;;15.98
53667;BMP280;39568;51.026;5.468;2022-10-14T12:30:44;100218.34;;;16.05
53667;BMP280;39568;51.026;5.468;2022-10-14T12:33:13;100216.91;;;16.04
53667;BMP280;39568;51.026;5.468;2022-10-14T12:35:47;100218.69;;;16.02
53667;BMP280;39568;51.026;5.468;2022-10-14T12:38:14;100214.38;;;15.91
53667;BMP280;39568;51.026;5.468;2022-10-14T12:40:42;100208.66;;;15.87
53667;BMP280;39568;51.026;5.468;2022-10-14T12:43:17;100210.09;;;15.96
53667;BMP280;39568;51.026;5.468;2022-10-14T12:45:48;100216.19;;;16.11
53667;BMP280;39568;51.026;5.468;2022-10-14T12:48:19;100208.34;;;16.21
53667;BMP280;39568;51.026;5.468;2022-10-14T12:50:47;100201.34;;;16.26
53667;BMP280;39568;51.026;5.468;2022-10-14T12:53:21;100203.28;;;16.33
53667;BMP280;39568;51.026;5.468;2022-10-14T12:55:52;100203.13;;;16.38
53667;BMP280;39568;51.026;5.468;2022-10-14T12:58:32;100200.97;;;16.52
53667;BMP280;39568;51.026;5.468;2022-10-14T13:01:14;100201.88;;;16.54
53667;BMP280;39568;51.026;5.468;2022-10-14T13:03:44;100193.47;;;16.50
53667;BMP280;39568;51.026;5.468;2022-10-14T13:06:32;100184.31;;;16.53
53667;BMP280;39568;51.026;5.468;2022-10-14T13:18:41;100187.34;;;16.65
53667;BMP280;39568;51.026;5.468;2022-10-14T13:21:28;100179.44;;;16.67
53667;BMP280;39568;51.026;5.468;2022-10-14T13:24:01;100182.47;;;16.71
53667;BMP280;39568;51.026;5.468;2022-10-14T13:26:37;100176.78;;;16.67
53667;BMP280;39568;51.026;5.468;2022-10-14T13:29:14;100182.47;;;16.71
53667;BMP280;39568;51.026;5.468;2022-10-14T13:31:47;100176.22;;;16.76
53667;BMP280;39568;51.026;5.468;2022-10-14T13:34:28;100179.25;;;16.80
53667;BMP280;39568;51.026;5.468;2022-10-14T13:37:04;100183.69;;;16.92
53667;BMP280;39568;51.026;5.468;2022-10-14T13:39:32;100162.16;;;17.00
53667;BMP280;39568;51.026;5.468;2022-10-14T13:42:02;100161.25;;;17.05
53667;BMP280;39568;51.026;5.468;2022-10-14T13:44:32;100172.03;;;17.30
53667;BMP280;39568;51.026;5.468;2022-10-14T13:47:00;100164.31;;;17.34
53667;BMP280;39568;51.026;5.468;2022-10-14T13:49:33;100162.88;;;17.40
53667;BMP280;39568;51.026;5.468;2022-10-14T13:52:02;100172.66;;;17.53
53667;BMP280;39568;51.026;5.468;2022-10-14T13:54:33;100165.97;;;17.61
53667;BMP280;39568;51.026;5.468;2022-10-14T13:57:01;100165.00;;;17.42
53667;BMP280;39568;51.026;5.468;2022-10-14T13:59:29;100155.97;;;17.22
53667;BMP280;39568;51.026;5.468;2022-10-14T14:01:59;100151.38;;;17.08
53667;BMP280;39568;51.026;5.468;2022-10-14T14:04:31;100156.59;;;17.06
53667;BMP280;39568;51.026;5.468;2022-10-14T14:06:58;100146.22;;;16.94
53667;BMP280;39568;51.026;5.468;2022-10-14T14:09:28;100149.50;;;16.93
53667;BMP280;39568;51.026;5.468;2022-10-14T14:11:58;100154.66;;;16.91
53667;BMP280;39568;51.026;5.468;2022-10-14T14:14:32;100146.41;;;16.97
53667;BMP280;39568;51.026;5.468;2022-10-14T14:17:04;100154.09;;;17.00
53667;BMP280;39568;51.026;5.468;2022-10-14T14:19:34;100152.63;;;17.07
53667;BMP280;39568;51.026;5.468;2022-10-14T14:22:06;100153.16;;;17.13
53667;BMP280;39568;51.026;5.468;2022-10-14T14:24:33;100142.03;;;17.16
53667;BMP280;39568;51.026;5.468;2022-10-14T14:27:09;100146.53;;;17.14
53667;BMP280;39568;51.026;5.468;2022-10-14T14:29:40;100150.44;;;17.20
53667;BMP280;39568;51.026;5.468;2022-10-14T14:32:14;100142.38;;;17.20